Time;durP1;ratioP1;P1;durP2;ratioP2;P2;SDS_P1;SDS_P2;PMS_P1;PMS_P2;Temp;Humidity;BMP_temperature;BMP_pressure;BME280_temperature;BME280_humidity;BME280_pressure;Samples;Min_cycle;Max_cycle;Signal;HPM_P1;HPM_P2
2022/04/04 00:00:50;;;;;;;13.90;6.70;;;;;;;;;;5019617;28;20021;-72
2022/04/04 00:03:15;;;;;;;16.45;7.97;;;;;;;;;;5012621;28;20084;-72
2022/04/04 00:05:40;;;;;;;13.65;6.85;;;;;;;;;;5013170;28;20033;-72
2022/04/04 00:08:06;;;;;;;13.77;7.13;;;;;;;;;;5008472;28;20297;-74
2022/04/04 00:10:31;;;;;;;20.90;7.30;;;;;;;;;;5018931;28;20064;-72
2022/04/04 00:12:57;;;;;;;16.73;8.15;;;;;;;;;;5007758;28;20048;-72
2022/04/04 00:15:22;;;;;;;18.40;8.15;;;;;;;;;;5013658;28;20021;-71
2022/04/04 00:17:47;;;;;;;15.05;8.20;;;;;;;;;;5013704;28;20728;-73
2022/04/04 00:20:12;;;;;;;18.83;8.52;;;;;;;;;;5014809;28;20365;-71
2022/04/04 00:22:37;;;;;;;20.83;8.32;;;;;;;;;;5012096;28;20476;-72
2022/04/04 00:25:03;;;;;;;17.73;7.47;;;;;;;;;;5018959;28;20574;-73
2022/04/04 00:27:28;;;;;;;15.63;8.05;;;;;;;;;;5017887;28;20021;-71
2022/04/04 00:29:54;;;;;;;14.43;7.80;;;;;;;;;;5013232;28;20147;-71
2022/04/04 00:32:19;;;;;;;20.73;9.18;;;;;;;;;;5020101;28;20672;-74
2022/04/04 00:34:44;;;;;;;22.23;10.15;;;;;;;;;;5012917;28;20402;-73
2022/04/04 00:37:09;;;;;;;17.67;8.02;;;;;;;;;;5016736;28;20270;-73
2022/04/04 00:39:35;;;;;;;16.52;7.70;;;;;;;;;;5012231;28;20014;-73
2022/04/04 00:42:00;;;;;;;16.60;8.52;;;;;;;;;;5014157;28;20395;-73
2022/04/04 00:44:25;;;;;;;18.73;9.93;;;;;;;;;;5014394;28;21027;-73
2022/04/04 00:46:51;;;;;;;15.93;8.65;;;;;;;;;;5018595;28;20429;-73
2022/04/04 00:49:16;;;;;;;18.75;9.30;;;;;;;;;;5017818;28;20028;-73
2022/04/04 00:51:41;;;;;;;22.83;10.53;;;;;;;;;;5015090;28;20500;-73
2022/04/04 00:54:06;;;;;;;14.23;7.43;;;;;;;;;;5016695;28;20275;-74
2022/04/04 00:56:33;;;;;;;16.88;7.93;;;;;;;;;;5013597;28;20115;-73
2022/04/04 00:58:58;;;;;;;19.75;8.90;;;;;;;;;;5008815;28;20029;-73
2022/04/04 01:01:24;;;;;;;23.00;10.68;;;;;;;;;;5011684;28;20060;-73
2022/04/04 01:03:50;;;;;;;27.88;9.65;;;;;;;;;;5015632;28;20040;-71
2022/04/04 01:06:16;;;;;;;21.90;9.40;;;;;;;;;;5014295;28;20696;-73
2022/04/04 01:08:41;;;;;;;24.00;11.15;;;;;;;;;;5009016;28;20537;-73
2022/04/04 01:11:08;;;;;;;24.58;11.75;;;;;;;;;;5024321;28;20025;-73
2022/04/04 01:13:33;;;;;;;26.30;12.27;;;;;;;;;;5017676;28;20103;-73
2022/04/04 01:15:58;;;;;;;25.73;10.90;;;;;;;;;;5012433;28;20464;-74
2022/04/04 01:18:23;;;;;;;25.92;12.15;;;;;;;;;;5020217;28;20255;-73
2022/04/04 01:20:49;;;;;;;29.40;13.20;;;;;;;;;;5015842;28;20306;-73
2022/04/04 01:23:20;;;;;;;27.10;11.38;;;;;;;;;;5014167;28;20018;-73
2022/04/04 01:25:46;;;;;;;25.13;12.27;;;;;;;;;;5015936;28;20024;-73
2022/04/04 01:28:11;;;;;;;28.73;14.82;;;;;;;;;;5012495;28;20025;-73
2022/04/04 01:30:36;;;;;;;25.17;12.30;;;;;;;;;;5013071;28;20279;-73
2022/04/04 01:33:01;;;;;;;26.90;11.80;;;;;;;;;;5018920;28;20040;-73
2022/04/04 01:35:26;;;;;;;30.60;18.83;;;;;;;;;;5008942;28;20068;-73
2022/04/04 01:37:52;;;;;;;34.45;17.15;;;;;;;;;;5015317;28;20021;-74
2022/04/04 01:40:17;;;;;;;33.83;16.77;;;;;;;;;;5011783;28;20060;-73
2022/04/04 01:42:46;;;;;;;33.57;14.97;;;;;;;;;;5014539;28;20044;-73
2022/04/04 01:45:11;;;;;;;28.25;13.45;;;;;;;;;;5020756;28;20655;-73
2022/04/04 01:47:37;;;;;;;39.10;18.52;;;;;;;;;;5017947;28;20024;-71
2022/04/04 01:50:03;;;;;;;38.95;19.55;;;;;;;;;;5009663;28;20026;-74
2022/04/04 01:52:28;;;;;;;36.83;17.63;;;;;;;;;;5019030;28;20645;-73
2022/04/04 01:54:53;;;;;;;35.45;20.38;;;;;;;;;;5016896;28;20025;-72
2022/04/04 01:57:19;;;;;;;34.35;19.63;;;;;;;;;;5018515;28;20028;-71
2022/04/04 01:59:44;;;;;;;36.83;18.00;;;;;;;;;;5017215;28;20029;-74
2022/04/04 02:02:09;;;;;;;48.00;23.75;;;;;;;;;;5015510;28;20035;-73
2022/04/04 02:04:35;;;;;;;36.88;17.02;;;;;;;;;;5014843;28;20328;-73
2022/04/04 02:07:00;;;;;;;34.63;16.73;;;;;;;;;;5010722;28;20072;-73
2022/04/04 02:09:25;;;;;;;44.75;22.77;;;;;;;;;;5017289;28;20095;-74
2022/04/04 02:11:50;;;;;;;36.13;17.20;;;;;;;;;;5016454;28;20056;-73
2022/04/04 02:14:15;;;;;;;30.45;16.60;;;;;;;;;;5019214;28;20288;-74
2022/04/04 02:16:42;;;;;;;31.65;16.30;;;;;;;;;;5016663;28;20547;-73
2022/04/04 02:19:09;;;;;;;40.47;19.50;;;;;;;;;;5013643;28;20296;-73
2022/04/04 02:21:35;;;;;;;32.95;16.30;;;;;;;;;;5013875;28;20479;-73
2022/04/04 02:24:00;;;;;;;35.92;16.92;;;;;;;;;;5014608;28;20045;-73
2022/04/04 02:26:25;;;;;;;33.13;14.32;;;;;;;;;;5020218;28;20030;-73
2022/04/04 02:28:50;;;;;;;34.22;18.02;;;;;;;;;;5020643;28;20259;-74
2022/04/04 02:31:15;;;;;;;29.90;14.77;;;;;;;;;;5018742;28;20571;-74
2022/04/04 02:33:40;;;;;;;39.67;16.90;;;;;;;;;;5022525;28;20349;-73
2022/04/04 02:36:06;;;;;;;33.10;16.17;;;;;;;;;;5018122;28;20060;-74
2022/04/04 02:38:32;;;;;;;31.77;15.55;;;;;;;;;;5016616;28;20380;-73
2022/04/04 02:40:58;;;;;;;26.95;15.20;;;;;;;;;;5020649;28;20017;-73
2022/04/04 02:43:23;;;;;;;30.70;13.32;;;;;;;;;;5023174;28;20037;-74
2022/04/04 02:45:48;;;;;;;24.20;13.00;;;;;;;;;;5014963;28;20463;-73
2022/04/04 02:48:17;;;;;;;28.20;12.30;;;;;;;;;;5020841;28;20028;-73
2022/04/04 02:50:43;;;;;;;27.77;13.55;;;;;;;;;;5018601;28;20049;-73
2022/04/04 02:53:08;;;;;;;37.15;15.30;;;;;;;;;;5017765;28;20057;-73
2022/04/04 02:58:17;;;;;;;29.60;13.13;;;;;;;;;;5020334;28;20309;-73
2022/04/04 03:00:42;;;;;;;28.25;12.93;;;;;;;;;;5018516;28;20021;-73
2022/04/04 03:03:08;;;;;;;30.42;13.00;;;;;;;;;;5016826;28;20109;-73
2022/04/04 03:05:34;;;;;;;30.58;14.23;;;;;;;;;;5014397;28;20104;-74
2022/04/04 03:07:59;;;;;;;20.17;10.30;;;;;;;;;;5018701;28;20543;-73
2022/04/04 03:10:24;;;;;;;33.42;12.60;;;;;;;;;;5022843;28;20021;-74
2022/04/04 03:12:50;;;;;;;28.25;15.32;;;;;;;;;;5020238;28;20025;-72
2022/04/04 03:15:21;;;;;;;28.55;15.65;;;;;;;;;;5015051;28;20464;-72
2022/04/04 03:17:48;;;;;;;33.45;15.73;;;;;;;;;;5019425;28;20030;-72
2022/04/04 03:20:14;;;;;;;29.60;12.80;;;;;;;;;;5024946;28;20368;-73
2022/04/04 03:22:41;;;;;;;26.88;12.77;;;;;;;;;;5013060;28;20381;-74
2022/04/04 03:25:08;;;;;;;27.75;11.55;;;;;;;;;;5018145;28;20468;-74
2022/04/04 03:27:34;;;;;;;26.63;11.05;;;;;;;;;;5019522;28;20052;-74
2022/04/04 03:29:59;;;;;;;23.13;11.30;;;;;;;;;;5019107;28;20356;-73
2022/04/04 03:32:24;;;;;;;24.42;12.63;;;;;;;;;;5016153;28;20022;-72
2022/04/04 03:34:50;;;;;;;25.50;11.27;;;;;;;;;;5021124;28;20433;-72
2022/04/04 03:37:16;;;;;;;29.13;14.43;;;;;;;;;;5019394;28;20026;-73
2022/04/04 03:39:41;;;;;;;22.98;12.70;;;;;;;;;;5012835;28;20017;-72
2022/04/04 03:42:06;;;;;;;28.33;13.20;;;;;;;;;;5012637;28;20026;-73
2022/04/04 03:44:32;;;;;;;22.88;11.07;;;;;;;;;;5015064;28;20033;-72
2022/04/04 03:46:57;;;;;;;30.55;13.25;;;;;;;;;;5017833;28;20030;-72
2022/04/04 03:49:22;;;;;;;25.92;13.45;;;;;;;;;;5014133;28;20100;-73
2022/04/04 03:51:47;;;;;;;24.85;9.90;;;;;;;;;;5024049;28;20032;-72
2022/04/04 03:54:12;;;;;;;28.10;13.80;;;;;;;;;;5020314;28;20285;-73
2022/04/04 03:56:38;;;;;;;25.50;13.68;;;;;;;;;;5018524;28;20306;-73
2022/04/04 03:59:03;;;;;;;29.25;13.75;;;;;;;;;;5023360;28;20030;-74
2022/04/04 04:01:30;;;;;;;20.23;11.38;;;;;;;;;;5015121;28;20021;-73
2022/04/04 04:03:55;;;;;;;27.58;13.57;;;;;;;;;;5024320;28;20515;-73
2022/04/04 04:06:20;;;;;;;21.38;9.75;;;;;;;;;;5019231;28;20059;-73
2022/04/04 04:08:46;;;;;;;27.27;13.38;;;;;;;;;;5026367;28;20028;-73
2022/04/04 04:11:13;;;;;;;23.13;11.50;;;;;;;;;;5023027;28;20111;-74
2022/04/04 04:13:39;;;;;;;22.38;11.55;;;;;;;;;;5016081;28;20500;-73
2022/04/04 04:16:05;;;;;;;25.88;13.45;;;;;;;;;;5020533;28;20137;-73
2022/04/04 04:18:30;;;;;;;26.90;11.38;;;;;;;;;;5023368;28;20459;-73
2022/04/04 04:20:56;;;;;;;26.50;10.52;;;;;;;;;;5017806;28;20026;-73
2022/04/04 04:23:22;;;;;;;26.90;10.68;;;;;;;;;;5018792;28;20026;-73
2022/04/04 04:25:48;;;;;;;27.08;13.07;;;;;;;;;;5018264;28;20021;-74
2022/04/04 04:28:13;;;;;;;28.05;12.25;;;;;;;;;;5020202;28;20040;-73
2022/04/04 04:30:38;;;;;;;22.13;10.48;;;;;;;;;;5019794;28;20075;-72
2022/04/04 04:33:04;;;;;;;31.33;13.30;;;;;;;;;;5019685;28;20132;-73
2022/04/04 04:35:29;;;;;;;31.35;12.95;;;;;;;;;;5024086;28;20044;-73
2022/04/04 04:37:55;;;;;;;28.25;12.13;;;;;;;;;;5020462;28;20380;-75
2022/04/04 04:40:21;;;;;;;24.85;11.30;;;;;;;;;;5024178;28;20014;-70
2022/04/04 04:42:47;;;;;;;24.20;11.18;;;;;;;;;;5023066;28;20028;-76
2022/04/04 04:45:13;;;;;;;24.60;12.48;;;;;;;;;;5021840;28;20032;-71
2022/04/04 04:47:38;;;;;;;29.83;14.13;;;;;;;;;;5016158;28;20017;-73
2022/04/04 04:50:04;;;;;;;28.23;11.85;;;;;;;;;;5016167;28;20032;-73
2022/04/04 04:52:31;;;;;;;32.10;14.98;;;;;;;;;;5017067;28;20079;-73
2022/04/04 04:54:56;;;;;;;35.50;13.68;;;;;;;;;;5012116;28;20033;-72
2022/04/04 04:57:22;;;;;;;29.95;12.60;;;;;;;;;;5015509;28;20032;-73
2022/04/04 04:59:47;;;;;;;27.30;13.57;;;;;;;;;;5017731;28;20038;-73
2022/04/04 05:02:12;;;;;;;32.35;12.70;;;;;;;;;;5011746;28;20025;-73
2022/04/04 05:04:38;;;;;;;32.30;15.32;;;;;;;;;;5015538;28;20014;-73
2022/04/04 05:07:03;;;;;;;29.58;13.27;;;;;;;;;;5010536;28;20688;-72
2022/04/04 05:09:28;;;;;;;28.27;12.23;;;;;;;;;;5018268;28;20693;-73
2022/04/04 05:11:53;;;;;;;35.15;17.17;;;;;;;;;;5017410;28;20048;-73
2022/04/04 05:14:19;;;;;;;30.35;16.17;;;;;;;;;;5020855;28;20329;-73
2022/04/04 05:16:45;;;;;;;32.30;14.27;;;;;;;;;;5010235;28;20259;-73
2022/04/04 05:19:12;;;;;;;29.70;15.40;;;;;;;;;;5014142;28;20034;-73
2022/04/04 05:21:37;;;;;;;40.67;17.80;;;;;;;;;;5008526;28;20112;-73
2022/04/04 05:24:03;;;;;;;29.40;15.15;;;;;;;;;;5021604;28;20718;-74
2022/04/04 05:26:29;;;;;;;33.17;15.68;;;;;;;;;;5007901;28;20495;-73
2022/04/04 05:28:55;;;;;;;30.40;15.40;;;;;;;;;;5013275;28;20029;-72
2022/04/04 05:31:20;;;;;;;38.42;14.07;;;;;;;;;;5014398;28;20037;-73
2022/04/04 05:33:45;;;;;;;38.87;13.83;;;;;;;;;;5011633;28;20471;-75
2022/04/04 05:36:10;;;;;;;32.42;12.57;;;;;;;;;;5005612;28;20303;-76
2022/04/04 05:38:35;;;;;;;37.22;16.75;;;;;;;;;;5017207;28;21060;-72
2022/04/04 05:41:00;;;;;;;33.85;19.17;;;;;;;;;;5014508;28;20267;-75
2022/04/04 05:43:26;;;;;;;35.95;15.65;;;;;;;;;;5013006;28;20036;-74
2022/04/04 05:45:53;;;;;;;34.05;13.90;;;;;;;;;;5016787;28;20425;-74
2022/04/04 05:48:18;;;;;;;36.35;14.98;;;;;;;;;;5017026;28;20039;-73
2022/04/04 05:50:43;;;;;;;40.85;16.38;;;;;;;;;;5016044;28;20049;-75
2022/04/04 05:53:09;;;;;;;40.03;17.55;;;;;;;;;;5015788;28;20333;-73
2022/04/04 05:55:34;;;;;;;35.28;16.13;;;;;;;;;;5023126;28;20290;-72
2022/04/04 05:57:59;;;;;;;38.55;20.15;;;;;;;;;;5020476;28;20467;-72
2022/04/04 06:00:25;;;;;;;33.72;13.35;;;;;;;;;;5025632;28;20018;-75
2022/04/04 06:02:50;;;;;;;36.67;21.27;;;;;;;;;;5019602;28;20306;-73
2022/04/04 06:05:15;;;;;;;34.27;14.67;;;;;;;;;;5015113;28;20036;-74
2022/04/04 06:07:41;;;;;;;38.58;19.75;;;;;;;;;;5018247;28;20637;-71
2022/04/04 06:10:08;;;;;;;37.58;18.77;;;;;;;;;;5026595;28;20021;-74
2022/04/04 06:12:36;;;;;;;42.83;21.33;;;;;;;;;;5023093;28;20033;-74
2022/04/04 06:15:02;;;;;;;39.50;19.92;;;;;;;;;;5019393;28;20026;-73
2022/04/04 06:17:27;;;;;;;38.10;16.20;;;;;;;;;;5012043;28;20044;-73
2022/04/04 06:19:53;;;;;;;39.60;18.38;;;;;;;;;;5012447;28;20077;-72
2022/04/04 06:22:18;;;;;;;46.55;22.90;;;;;;;;;;5014518;28;20040;-74
2022/04/04 06:24:43;;;;;;;31.42;17.05;;;;;;;;;;5012066;28;20029;-73
2022/04/04 06:27:09;;;;;;;49.85;23.48;;;;;;;;;;5018895;28;20426;-73
2022/04/04 06:29:34;;;;;;;39.13;17.65;;;;;;;;;;5011454;28;20030;-72
2022/04/04 06:31:59;;;;;;;46.72;22.75;;;;;;;;;;5008536;28;20069;-72
2022/04/04 06:34:25;;;;;;;37.97;19.70;;;;;;;;;;5011233;28;20044;-72
2022/04/04 06:36:51;;;;;;;47.97;25.52;;;;;;;;;;5011578;28;20283;-73
2022/04/04 06:39:16;;;;;;;47.25;18.15;;;;;;;;;;5014789;28;20347;-71
2022/04/04 06:41:42;;;;;;;41.25;17.35;;;;;;;;;;5019676;28;20025;-73
2022/04/04 06:44:07;;;;;;;44.67;20.52;;;;;;;;;;5009715;28;20502;-74
2022/04/04 06:46:35;;;;;;;47.07;22.13;;;;;;;;;;5013181;28;20073;-72
2022/04/04 06:49:01;;;;;;;33.97;16.77;;;;;;;;;;5021604;28;20328;-73
2022/04/04 06:51:26;;;;;;;42.30;16.30;;;;;;;;;;5016111;28;20033;-73
2022/04/04 06:53:51;;;;;;;39.85;22.27;;;;;;;;;;5000497;28;20823;-73
2022/04/04 06:56:16;;;;;;;43.78;19.40;;;;;;;;;;5000911;28;20109;-73
2022/04/04 06:58:42;;;;;;;25.80;12.60;;;;;;;;;;4998819;28;20061;-72
2022/04/04 07:01:07;;;;;;;37.80;21.05;;;;;;;;;;5004024;28;20586;-73
2022/04/04 07:03:32;;;;;;;37.40;18.75;;;;;;;;;;5003808;28;20034;-72
2022/04/04 07:05:57;;;;;;;31.55;16.88;;;;;;;;;;5019014;28;20029;-70
2022/04/04 07:08:22;;;;;;;46.00;18.50;;;;;;;;;;5021280;28;20029;-71
2022/04/04 07:10:48;;;;;;;44.08;20.95;;;;;;;;;;5010132;28;20021;-70
2022/04/04 07:13:13;;;;;;;45.15;19.30;;;;;;;;;;5021638;28;20275;-72
2022/04/04 07:15:39;;;;;;;45.25;21.17;;;;;;;;;;5013045;28;20100;-72
2022/04/04 07:18:04;;;;;;;34.78;19.20;;;;;;;;;;5016308;28;20032;-72
2022/04/04 07:20:29;;;;;;;39.35;17.40;;;;;;;;;;5014204;28;20025;-73
2022/04/04 07:22:55;;;;;;;33.63;12.88;;;;;;;;;;5017940;28;20413;-74
2022/04/04 07:25:21;;;;;;;41.22;20.42;;;;;;;;;;5021598;28;20033;-73
2022/04/04 07:27:47;;;;;;;32.03;18.27;;;;;;;;;;5019552;28;20017;-71
2022/04/04 07:30:13;;;;;;;28.58;12.30;;;;;;;;;;5013741;28;20459;-73
2022/04/04 07:32:39;;;;;;;36.38;15.38;;;;;;;;;;5011914;28;20021;-74
2022/04/04 07:35:05;;;;;;;38.63;23.15;;;;;;;;;;5010211;28;20030;-72
2022/04/04 07:37:31;;;;;;;32.28;16.77;;;;;;;;;;5016090;28;20017;-71
2022/04/04 07:39:56;;;;;;;39.30;19.00;;;;;;;;;;5012982;28;20025;-70
2022/04/04 07:42:21;;;;;;;36.85;18.70;;;;;;;;;;5019726;28;20036;-73
2022/04/04 07:44:47;;;;;;;36.70;15.77;;;;;;;;;;5011718;28;20041;-74
2022/04/04 07:47:12;;;;;;;32.60;18.58;;;;;;;;;;5007699;28;20270;-72
2022/04/04 07:49:37;;;;;;;34.90;18.13;;;;;;;;;;5014315;28;20057;-71
2022/04/04 07:52:03;;;;;;;44.80;20.63;;;;;;;;;;5008769;28;20088;-73
2022/04/04 07:54:28;;;;;;;35.10;17.05;;;;;;;;;;5014393;28;20033;-70
2022/04/04 07:56:56;;;;;;;39.83;19.40;;;;;;;;;;5023131;28;20067;-72
2022/04/04 07:59:21;;;;;;;46.58;21.30;;;;;;;;;;5014414;28;20056;-73
2022/04/04 08:01:46;;;;;;;38.45;20.08;;;;;;;;;;5007891;28;20453;-72
2022/04/04 08:04:12;;;;;;;49.08;22.55;;;;;;;;;;5011426;28;20034;-72
2022/04/04 08:06:37;;;;;;;36.78;19.35;;;;;;;;;;5011235;28;20026;-73
2022/04/04 08:09:02;;;;;;;42.97;21.37;;;;;;;;;;5012965;28;20108;-71
2022/04/04 08:11:27;;;;;;;37.47;22.02;;;;;;;;;;5016713;28;20270;-73
2022/04/04 08:13:52;;;;;;;39.08;23.20;;;;;;;;;;5014660;28;20093;-70
2022/04/04 08:16:18;;;;;;;42.05;17.60;;;;;;;;;;5014209;28;20323;-70
2022/04/04 08:18:43;;;;;;;41.60;20.48;;;;;;;;;;5009914;28;20034;-72
2022/04/04 08:21:08;;;;;;;43.58;21.50;;;;;;;;;;5013837;28;20026;-72
2022/04/04 08:23:33;;;;;;;54.90;24.33;;;;;;;;;;5017712;28;20282;-70
2022/04/04 08:25:59;;;;;;;39.47;21.58;;;;;;;;;;5020981;28;20565;-71
2022/04/04 08:28:24;;;;;;;50.72;20.27;;;;;;;;;;5015568;28;20030;-72
2022/04/04 08:30:50;;;;;;;45.33;22.92;;;;;;;;;;5008074;28;20077;-71
2022/04/04 08:33:16;;;;;;;44.55;24.30;;;;;;;;;;5008939;28;20032;-71
2022/04/04 08:35:42;;;;;;;33.45;17.08;;;;;;;;;;5017037;28;20022;-70
2022/04/04 08:38:07;;;;;;;42.53;19.58;;;;;;;;;;5010143;28;20032;-70
2022/04/04 08:40:32;;;;;;;46.75;23.48;;;;;;;;;;5020276;28;20259;-71
2022/04/04 08:42:57;;;;;;;42.17;22.27;;;;;;;;;;5008431;28;20299;-71
2022/04/04 08:45:22;;;;;;;42.67;23.52;;;;;;;;;;5013287;28;20030;-71
2022/04/04 08:47:48;;;;;;;45.25;21.83;;;;;;;;;;5017366;28;20022;-72
2022/04/04 08:50:14;;;;;;;38.85;19.33;;;;;;;;;;5009110;28;20139;-70
2022/04/04 08:52:40;;;;;;;45.13;19.98;;;;;;;;;;5008169;28;20068;-72
2022/04/04 08:55:05;;;;;;;42.22;21.08;;;;;;;;;;5010833;28;20053;-70
2022/04/04 08:57:30;;;;;;;47.42;20.38;;;;;;;;;;5012972;28;20029;-72
2022/04/04 08:59:56;;;;;;;39.72;16.48;;;;;;;;;;5016489;28;20048;-73
2022/04/04 09:02:21;;;;;;;39.33;17.15;;;;;;;;;;5008845;28;20717;-72
2022/04/04 09:04:50;;;;;;;58.67;25.60;;;;;;;;;;5011868;28;20528;-74
2022/04/04 09:07:15;;;;;;;47.75;21.33;;;;;;;;;;5008009;28;20045;-72
2022/04/04 09:09:44;;;;;;;42.78;22.25;;;;;;;;;;5018850;28;20026;-72
2022/04/04 09:12:10;;;;;;;38.90;17.17;;;;;;;;;;5006591;28;20722;-72
2022/04/04 09:14:37;;;;;;;46.33;25.73;;;;;;;;;;5014879;28;20043;-71
2022/04/04 09:17:05;;;;;;;47.83;25.25;;;;;;;;;;5012116;28;20105;-74
2022/04/04 09:19:30;;;;;;;54.00;28.10;;;;;;;;;;5023195;28;20359;-71
2022/04/04 09:21:56;;;;;;;50.45;24.38;;;;;;;;;;5015341;28;20461;-72
2022/04/04 09:24:21;;;;;;;48.38;21.15;;;;;;;;;;5015322;28;20034;-71
2022/04/04 09:26:48;;;;;;;47.22;21.80;;;;;;;;;;5005338;28;20681;-73
2022/04/04 09:29:19;;;;;;;60.83;24.20;;;;;;;;;;5011798;28;20030;-71
2022/04/04 09:31:54;;;;;;;52.55;24.27;;;;;;;;;;5013184;28;20049;-72
2022/04/04 09:34:19;;;;;;;58.35;23.60;;;;;;;;;;5022446;28;20034;-73
2022/04/04 09:36:46;;;;;;;53.22;28.88;;;;;;;;;;5011254;28;20034;-72
2022/04/04 09:39:13;;;;;;;49.63;23.27;;;;;;;;;;5020725;28;20255;-71
2022/04/04 09:41:39;;;;;;;55.50;24.55;;;;;;;;;;5002426;28;20033;-72
2022/04/04 09:44:47;;;;;;;65.95;33.78;;;;;;;;;;5015177;28;20026;-70
2022/04/04 09:46:53;;;;;;;60.95;25.48;;;;;;;;;;5009784;28;20064;-72
2022/04/04 09:49:20;;;;;;;51.95;22.85;;;;;;;;;;5013466;28;20025;-70
2022/04/04 09:51:55;;;;;;;54.78;25.38;;;;;;;;;;5009889;28;20018;-71
2022/04/04 09:54:23;;;;;;;61.97;29.88;;;;;;;;;;5015160;28;20025;-71
2022/04/04 09:56:50;;;;;;;58.53;29.55;;;;;;;;;;5019163;28;20536;-72
2022/04/04 09:59:16;;;;;;;61.92;27.13;;;;;;;;;;5017761;28;20384;-72
2022/04/04 10:01:42;;;;;;;62.72;33.42;;;;;;;;;;5017583;28;20034;-73
2022/04/04 10:04:08;;;;;;;55.72;25.38;;;;;;;;;;5012166;28;20526;-75
2022/04/04 10:06:34;;;;;;;70.55;34.10;;;;;;;;;;5007960;28;20080;-72
2022/04/04 10:09:00;;;;;;;52.33;22.55;;;;;;;;;;5010654;28;20563;-73
2022/04/04 10:11:25;;;;;;;68.03;32.33;;;;;;;;;;5010052;28;20034;-71
2022/04/04 10:13:54;;;;;;;69.05;32.13;;;;;;;;;;5007056;28;20128;-72
2022/04/04 10:16:22;;;;;;;67.25;35.28;;;;;;;;;;5018081;28;20053;-73
2022/04/04 10:18:48;;;;;;;58.42;27.60;;;;;;;;;;5008142;28;20037;-73
2022/04/04 10:21:13;;;;;;;67.97;27.60;;;;;;;;;;5010126;28;20453;-75
2022/04/04 10:23:39;;;;;;;76.43;35.28;;;;;;;;;;5008657;28;20026;-70
2022/04/04 10:26:07;;;;;;;73.25;33.83;;;;;;;;;;5011798;28;20025;-73
2022/04/04 10:28:34;;;;;;;64.50;28.83;;;;;;;;;;5015814;28;20368;-71
2022/04/04 10:31:01;;;;;;;83.07;34.58;;;;;;;;;;5009454;28;20041;-73
2022/04/04 10:33:26;;;;;;;79.15;34.22;;;;;;;;;;5010991;28;21690;-70
2022/04/04 10:35:58;;;;;;;65.20;29.13;;;;;;;;;;5019055;28;20464;-73
2022/04/04 10:38:28;;;;;;;76.55;35.58;;;;;;;;;;5019311;28;20547;-70
2022/04/04 10:40:54;;;;;;;77.22;34.50;;;;;;;;;;5015423;28;20060;-71
2022/04/04 10:43:20;;;;;;;48.95;20.55;;;;;;;;;;5015648;28;20104;-71
2022/04/04 10:45:52;;;;;;;83.97;38.05;;;;;;;;;;5022539;28;20029;-72
2022/04/04 10:48:18;;;;;;;56.53;22.80;;;;;;;;;;5024169;28;20197;-70
2022/04/04 10:50:44;;;;;;;70.10;26.65;;;;;;;;;;5010966;28;20018;-70
2022/04/04 10:53:10;;;;;;;87.07;39.28;;;;;;;;;;5023386;28;20557;-72
2022/04/04 10:55:38;;;;;;;75.95;34.58;;;;;;;;;;5017113;28;20054;-72
2022/04/04 10:58:07;;;;;;;94.32;35.28;;;;;;;;;;5018054;28;20128;-74
2022/04/04 11:00:34;;;;;;;83.82;37.03;;;;;;;;;;5017859;28;20026;-71
2022/04/04 11:03:01;;;;;;;93.88;45.63;;;;;;;;;;5014358;28;20526;-73
2022/04/04 11:08:30;;;;;;;73.63;30.15;;;;;;;;;;4999526;28;20052;-72
2022/04/04 11:10:57;;;;;;;87.35;42.60;;;;;;;;;;5020161;28;20372;-70
2022/04/04 11:13:23;;;;;;;79.35;30.73;;;;;;;;;;5013865;28;20034;-71
2022/04/04 11:15:54;;;;;;;79.40;35.25;;;;;;;;;;5018482;28;20376;-70
2022/04/04 11:18:19;;;;;;;94.10;40.65;;;;;;;;;;5021877;28;20024;-74
2022/04/04 11:20:59;;;;;;;91.75;40.58;;;;;;;;;;5008540;28;20026;-72
2022/04/04 11:23:37;;;;;;;87.93;41.70;;;;;;;;;;5007166;28;20468;-70
2022/04/04 11:26:08;;;;;;;73.10;28.88;;;;;;;;;;5008520;28;20058;-71
2022/04/04 11:28:36;;;;;;;100.95;42.72;;;;;;;;;;5010074;28;20148;-72
2022/04/04 11:31:08;;;;;;;93.03;41.20;;;;;;;;;;5012436;28;20037;-71
2022/04/04 11:33:47;;;;;;;79.82;39.28;;;;;;;;;;5010217;28;20029;-71
2022/04/04 11:36:22;;;;;;;85.18;39.00;;;;;;;;;;5013043;28;20531;-69
2022/04/04 11:38:47;;;;;;;81.13;37.50;;;;;;;;;;5017869;28;20445;-70
2022/04/04 11:41:12;;;;;;;76.07;41.17;;;;;;;;;;5012343;28;20037;-71
2022/04/04 11:43:40;;;;;;;49.72;22.40;;;;;;;;;;5016503;28;20044;-70
2022/04/04 11:46:11;;;;;;;57.60;28.90;;;;;;;;;;5015403;28;20399;-71
2022/04/04 11:48:47;;;;;;;64.05;31.55;;;;;;;;;;5017079;28;20029;-71
2022/04/04 11:51:12;;;;;;;59.60;27.73;;;;;;;;;;5018954;28;20686;-72
2022/04/04 11:53:38;;;;;;;51.70;23.33;;;;;;;;;;5023218;28;20149;-72
2022/04/04 11:56:08;;;;;;;52.42;27.25;;;;;;;;;;5022067;28;20690;-72
2022/04/04 11:58:37;;;;;;;68.20;31.98;;;;;;;;;;5019310;28;20610;-73
2022/04/04 12:01:04;;;;;;;67.13;32.92;;;;;;;;;;5022344;28;20029;-71
2022/04/04 12:03:32;;;;;;;85.15;45.60;;;;;;;;;;5019125;28;20423;-70
2022/04/04 12:05:58;;;;;;;76.60;35.50;;;;;;;;;;5019044;28;20032;-73
2022/04/04 12:08:25;;;;;;;70.68;35.40;;;;;;;;;;5018175;28;20026;-73
2022/04/04 12:10:51;;;;;;;72.00;32.92;;;;;;;;;;5017751;28;20061;-71
2022/04/04 12:13:21;;;;;;;62.08;27.13;;;;;;;;;;5017311;28;20109;-71
2022/04/04 12:15:48;;;;;;;69.18;37.67;;;;;;;;;;5021807;28;20075;-71
2022/04/04 12:18:23;;;;;;;71.32;38.85;;;;;;;;;;5023771;28;20035;-72
2022/04/04 12:20:48;;;;;;;60.05;24.45;;;;;;;;;;5016641;28;20104;-71
2022/04/04 12:26:00;;;;;;;73.68;32.60;;;;;;;;;;5011224;28;20389;-69
2022/04/04 12:28:26;;;;;;;76.30;37.72;;;;;;;;;;5023104;28;20053;-73
2022/04/04 12:30:52;;;;;;;63.53;30.33;;;;;;;;;;5013782;28;20416;-72
2022/04/04 12:33:18;;;;;;;80.82;37.25;;;;;;;;;;5012951;28;20022;-69
2022/04/04 12:35:43;;;;;;;78.30;37.72;;;;;;;;;;5024622;28;20028;-71
2022/04/04 12:38:09;;;;;;;76.30;39.20;;;;;;;;;;5019460;28;20096;-70
2022/04/04 12:40:34;;;;;;;71.45;34.85;;;;;;;;;;5014470;28;20383;-72
2022/04/04 12:43:05;;;;;;;82.10;37.88;;;;;;;;;;5012373;28;20375;-70
2022/04/04 12:45:31;;;;;;;69.72;29.15;;;;;;;;;;5014444;28;20547;-74
2022/04/04 12:48:00;;;;;;;80.28;46.67;;;;;;;;;;5020590;28;20051;-70
2022/04/04 12:50:42;;;;;;;71.35;32.50;;;;;;;;;;5016446;28;20025;-70
2022/04/04 12:53:09;;;;;;;73.75;38.90;;;;;;;;;;5013928;28;20408;-71
2022/04/04 12:55:35;;;;;;;63.95;31.10;;;;;;;;;;5016507;28;20040;-69
2022/04/04 12:58:19;;;;;;;82.25;41.15;;;;;;;;;;5020509;28;20022;-71
2022/04/04 13:00:44;;;;;;;60.23;25.23;;;;;;;;;;5017863;28;20484;-71
2022/04/04 13:03:19;;;;;;;74.70;33.25;;;;;;;;;;5021510;28;20033;-69
2022/04/04 13:05:47;;;;;;;82.10;42.45;;;;;;;;;;5020924;28;20491;-72
2022/04/04 13:08:26;;;;;;;66.63;28.55;;;;;;;;;;5018453;28;20113;-72
2022/04/04 13:11:02;;;;;;;75.50;35.15;;;;;;;;;;5028006;28;20110;-74
2022/04/04 13:13:27;;;;;;;76.88;37.80;;;;;;;;;;5020655;28;20030;-72
2022/04/04 13:15:52;;;;;;;87.43;38.08;;;;;;;;;;5018252;28;20033;-76
2022/04/04 13:18:17;;;;;;;70.37;29.43;;;;;;;;;;5022863;28;20231;-72
2022/04/04 13:20:43;;;;;;;86.53;36.23;;;;;;;;;;5016674;28;20259;-72
2022/04/04 13:23:08;;;;;;;74.53;31.67;;;;;;;;;;5019577;28;20263;-70
2022/04/04 13:25:33;;;;;;;80.53;39.60;;;;;;;;;;5015596;28;20360;-70
2022/04/04 13:27:58;;;;;;;84.20;42.77;;;;;;;;;;5017034;28;20519;-72
2022/04/04 13:30:23;;;;;;;79.40;35.13;;;;;;;;;;5013195;28;20254;-69
2022/04/04 13:32:49;;;;;;;59.83;26.60;;;;;;;;;;5016407;28;20270;-72
2022/04/04 13:35:14;;;;;;;59.17;21.43;;;;;;;;;;5018383;28;20025;-73
2022/04/04 13:37:39;;;;;;;66.78;27.42;;;;;;;;;;5021040;28;20275;-71
2022/04/04 13:40:05;;;;;;;67.72;30.58;;;;;;;;;;5015868;28;20109;-71
2022/04/04 13:42:30;;;;;;;45.92;19.50;;;;;;;;;;5017750;28;20018;-75
2022/04/04 13:44:55;;;;;;;71.55;35.05;;;;;;;;;;5016695;28;20022;-73
2022/04/04 13:47:20;;;;;;;65.15;29.45;;;;;;;;;;5018663;28;20048;-72
2022/04/04 13:49:46;;;;;;;72.95;37.60;;;;;;;;;;5016728;28;20029;-74
2022/04/04 13:52:13;;;;;;;57.30;26.13;;;;;;;;;;5019603;28;20041;-71
2022/04/04 13:54:39;;;;;;;75.65;30.20;;;;;;;;;;5020891;28;20021;-72
2022/04/04 13:57:04;;;;;;;65.68;31.88;;;;;;;;;;5023536;28;20021;-70
2022/04/04 13:59:29;;;;;;;69.60;29.90;;;;;;;;;;5013040;28;20037;-73
2022/04/04 14:01:54;;;;;;;64.72;32.90;;;;;;;;;;5017175;28;20022;-76
2022/04/04 14:04:20;;;;;;;62.42;26.42;;;;;;;;;;5016926;28;20333;-72
2022/04/04 14:06:45;;;;;;;48.15;20.88;;;;;;;;;;5015736;28;20036;-72
2022/04/04 14:09:11;;;;;;;59.63;32.55;;;;;;;;;;5022639;28;20033;-74
2022/04/04 14:11:37;;;;;;;57.78;25.73;;;;;;;;;;5021485;28;20025;-74
2022/04/04 14:14:02;;;;;;;55.67;30.23;;;;;;;;;;5015659;28;20661;-74
2022/04/04 14:16:27;;;;;;;49.53;22.95;;;;;;;;;;5016051;28;20425;-75
2022/04/04 14:18:52;;;;;;;49.47;20.40;;;;;;;;;;5018946;28;20503;-73
2022/04/04 14:21:19;;;;;;;61.43;26.87;;;;;;;;;;5021590;28;20275;-73